Time;durP1;ratioP1;P1;durP2;ratioP2;P2;SDS_P1;SDS_P2;PMS_P1;PMS_P2;Temp;Humidity;BMP_temperature;BMP_pressure;BME280_temperature;BME280_humidity;BME280_pressure;Samples;Min_cycle;Max_cycle;Signal;HPM_P1;HPM_P2
2023/09/25 00:00:07;;;;;;;1.30;1.20;;;18.90;91.10;;;;;;5041195;28;20176;-12
2023/09/25 00:02:33;;;;;;;1.00;1.00;;;18.90;91.20;;;;;;5051278;28;20410;-12
2023/09/25 00:04:59;;;;;;;1.30;1.20;;;18.80;91.00;;;;;;5039108;28;20757;-11
2023/09/25 00:07:24;;;;;;;1.30;1.20;;;18.80;90.30;;;;;;5039455;28;20165;-12
2023/09/25 00:09:51;;;;;;;1.63;1.23;;;18.80;91.10;;;;;;5023893;28;20176;-12
2023/09/25 00:12:16;;;;;;;1.70;1.10;;;18.80;91.20;;;;;;5057933;28;20179;-12
2023/09/25 00:14:42;;;;;;;2.07;1.10;;;18.90;91.00;;;;;;5059207;28;20449;-11
2023/09/25 00:17:08;;;;;;;1.00;0.90;;;18.80;90.00;;;;;;5058187;28;20238;-11
2023/09/25 00:19:36;;;;;;;1.20;1.10;;;18.70;91.00;;;;;;5058790;28;20478;-12
2023/09/25 00:22:02;;;;;;;2.27;1.33;;;18.70;91.20;;;;;;5057839;28;20230;-11
2023/09/25 00:24:28;;;;;;;1.07;0.97;;;18.80;91.20;;;;;;5058157;28;20221;-11
2023/09/25 00:26:53;;;;;;;1.27;1.10;;;18.80;91.10;;;;;;5057829;28;20204;-10
2023/09/25 00:29:19;;;;;;;1.90;1.10;;;18.90;90.90;;;;;;5058079;28;20214;-12
2023/09/25 00:31:45;;;;;;;0.83;0.80;;;18.90;90.90;;;;;;5058058;28;20176;-11
2023/09/25 00:34:13;;;;;;;1.50;1.13;;;18.90;91.00;;;;;;5058084;28;20172;-12
2023/09/25 00:36:39;;;;;;;1.33;1.00;;;18.80;90.60;;;;;;5058823;28;20171;-13
2023/09/25 00:39:10;;;;;;;1.50;1.17;;;18.70;91.10;;;;;;5045575;28;20548;-11
2023/09/25 00:41:35;;;;;;;1.83;1.13;;;18.70;90.90;;;;;;5053335;28;20176;-12
2023/09/25 00:44:01;;;;;;;1.20;1.03;;;18.60;90.10;;;;;;5046232;28;20185;-13
2023/09/25 00:46:27;;;;;;;1.50;1.00;;;18.50;91.10;;;;;;5037361;28;20373;-11
2023/09/25 00:49:06;;;;;;;1.40;1.20;;;18.60;90.60;;;;;;5038641;28;20251;-11
2023/09/25 00:51:31;;;;;;;1.10;1.00;;;18.40;90.60;;;;;;5043259;28;20176;-11
2023/09/25 00:53:57;;;;;;;3.47;1.20;;;18.30;91.20;;;;;;5057419;28;20495;-12
2023/09/25 00:56:23;;;;;;;1.60;1.10;;;18.30;91.40;;;;;;5057925;28;20188;-11
2023/09/25 00:58:51;;;;;;;2.13;1.20;;;18.30;91.40;;;;;;5058600;28;20161;-11
2023/09/25 01:01:18;;;;;;;1.20;1.10;;;18.40;91.40;;;;;;5054450;28;20186;-9
2023/09/25 01:03:43;;;;;;;1.47;1.27;;;18.30;91.30;;;;;;5038854;28;20157;-11
2023/09/25 01:06:10;;;;;;;1.57;1.10;;;18.20;90.70;;;;;;5057743;28;20281;-11
2023/09/25 01:08:40;;;;;;;1.87;1.07;;;18.10;91.30;;;;;;5058532;28;20183;-12
2023/09/25 01:11:05;;;;;;;3.37;0.93;;;18.20;91.50;;;;;;5057741;28;20268;-13
2023/09/25 01:13:31;;;;;;;1.43;1.10;;;18.40;91.10;;;;;;5057503;28;20257;-11
2023/09/25 01:15:57;;;;;;;1.73;1.00;;;18.40;90.70;;;;;;5047622;28;20174;-11
2023/09/25 01:18:29;;;;;;;1.93;1.00;;;18.50;90.90;;;;;;5058285;28;20601;-11
2023/09/25 01:20:55;;;;;;;3.17;1.20;;;18.50;90.60;;;;;;5042600;28;20588;-10
2023/09/25 01:23:20;;;;;;;1.37;1.10;;;18.50;90.90;;;;;;5037258;28;20176;-11
2023/09/25 01:25:46;;;;;;;1.50;1.10;;;18.50;90.90;;;;;;5054036;28;20293;-11
2023/09/25 01:28:18;;;;;;;1.07;0.97;;;18.60;90.80;;;;;;5036932;28;20173;-10
2023/09/25 01:30:44;;;;;;;1.37;1.00;;;18.60;90.70;;;;;;5044645;28;20238;-11
2023/09/25 01:33:10;;;;;;;2.07;1.17;;;18.70;90.20;;;;;;5057730;28;20186;-11
2023/09/25 01:35:36;;;;;;;1.80;1.10;;;18.50;90.80;;;;;;5056853;28;20226;-11
2023/09/25 01:38:04;;;;;;;1.60;1.10;;;18.60;90.70;;;;;;5051210;28;20211;-11
2023/09/25 01:40:31;;;;;;;1.10;1.00;;;18.60;90.60;;;;;;5037780;28;20169;-11
2023/09/25 01:42:56;;;;;;;1.10;1.00;;;18.60;90.70;;;;;;5037120;28;20168;-11
2023/09/25 01:45:23;;;;;;;1.60;1.10;;;18.60;90.60;;;;;;5036851;28;20230;-11
2023/09/25 01:47:51;;;;;;;1.17;1.00;;;18.50;90.80;;;;;;5020534;28;20186;-11
2023/09/25 01:50:21;;;;;;;1.20;1.00;;;18.60;90.80;;;;;;5036831;28;20173;-12
2023/09/25 01:53:00;;;;;;;1.07;0.97;;;18.60;90.50;;;;;;5032356;28;20275;-12
2023/09/25 01:58:14;;;;;;;1.10;1.00;;;18.50;90.00;;;;;;5037606;28;20190;-12
2023/09/25 02:00:39;;;;;;;1.20;1.00;;;18.50;90.80;;;;;;5036892;28;20257;-12
2023/09/25 02:03:05;;;;;;;1.30;1.10;;;18.50;90.70;;;;;;5041747;28;20555;-11
2023/09/25 02:05:41;;;;;;;1.27;1.03;;;18.60;90.60;;;;;;5056279;28;20767;-12
2023/09/25 02:08:09;;;;;;;1.10;1.00;;;18.60;90.60;;;;;;5057480;28;20191;-11
2023/09/25 02:10:35;;;;;;;1.03;0.93;;;18.70;90.70;;;;;;5056320;28;20184;-12
2023/09/25 02:13:00;;;;;;;1.40;1.00;;;18.70;90.50;;;;;;5044485;28;20168;-13
2023/09/25 02:15:27;;;;;;;1.27;1.10;;;18.70;90.50;;;;;;5037107;28;20181;-11
2023/09/25 02:17:53;;;;;;;1.90;1.40;;;18.60;90.50;;;;;;5036358;28;20280;-13
2023/09/25 02:20:19;;;;;;;1.37;1.00;;;18.50;90.30;;;;;;5037403;28;20236;-11
2023/09/25 02:22:48;;;;;;;1.10;0.80;;;18.50;90.80;;;;;;5046670;28;20177;-12
2023/09/25 02:25:34;;;;;;;1.07;0.97;;;18.50;90.30;;;;;;5056414;28;20374;-12
2023/09/25 02:28:00;;;;;;;1.53;1.00;;;18.50;90.80;;;;;;5036382;28;20187;-10
2023/09/25 02:30:25;;;;;;;0.87;0.87;;;18.60;90.60;;;;;;5037073;28;20177;-11
2023/09/25 02:32:51;;;;;;;1.10;1.00;;;18.60;90.40;;;;;;5037196;28;20177;-9
2023/09/25 02:35:18;;;;;;;1.00;0.90;;;18.50;90.70;;;;;;5041604;28;20169;-13
2023/09/25 02:37:44;;;;;;;1.43;1.00;;;18.50;90.60;;;;;;5056236;28;20169;-11
2023/09/25 02:40:13;;;;;;;1.80;1.17;;;18.60;90.40;;;;;;5057154;28;20263;-11
2023/09/25 02:42:40;;;;;;;1.27;1.03;;;18.60;90.60;;;;;;5056274;28;20266;-11
2023/09/25 02:45:25;;;;;;;0.90;0.87;;;18.60;90.50;;;;;;5049371;28;20483;-12
2023/09/25 02:47:50;;;;;;;0.87;0.83;;;18.60;90.60;;;;;;5046445;28;20698;-12
2023/09/25 02:50:17;;;;;;;1.37;1.00;;;18.50;90.80;;;;;;5036708;28;20604;-11
2023/09/25 02:52:43;;;;;;;2.60;1.10;;;18.50;90.60;;;;;;5036670;28;20177;-12
2023/09/25 02:55:10;;;;;;;0.90;0.90;;;18.50;90.60;;;;;;5043623;28;20259;-11
2023/09/25 02:57:35;;;;;;;1.10;1.00;;;18.50;90.70;;;;;;5036904;28;20573;-10
2023/09/25 03:00:01;;;;;;;1.10;0.93;;;18.40;90.70;;;;;;5053724;28;20251;-12
2023/09/25 03:02:27;;;;;;;1.63;1.00;;;18.40;90.80;;;;;;5059525;28;20222;-11
2023/09/25 03:04:59;;;;;;;1.20;1.00;;;18.40;90.70;;;;;;5060050;28;20218;-11
2023/09/25 03:07:24;;;;;;;1.50;1.10;;;18.50;90.70;;;;;;5059804;28;20204;-11
2023/09/25 03:09:50;;;;;;;1.30;0.90;;;18.50;90.70;;;;;;5059377;28;20172;-9
2023/09/25 03:12:16;;;;;;;1.00;0.90;;;18.50;90.70;;;;;;5059984;28;20639;-11
2023/09/25 03:14:49;;;;;;;1.17;1.00;;;18.50;90.70;;;;;;5060025;28;20211;-11
2023/09/25 03:17:14;;;;;;;1.63;0.80;;;18.50;90.80;;;;;;5059400;28;20191;-12
2023/09/25 03:19:40;;;;;;;2.30;1.10;;;18.50;90.70;;;;;;5058898;28;20196;-12
2023/09/25 03:22:06;;;;;;;1.00;0.90;;;18.50;90.70;;;;;;5060215;28;20670;-11
2023/09/25 03:24:35;;;;;;;1.00;0.90;;;18.50;90.70;;;;;;5059099;28;20183;-12
2023/09/25 03:27:00;;;;;;;1.07;0.90;;;18.50;90.90;;;;;;5059444;28;20611;-10
2023/09/25 03:29:26;;;;;;;0.80;0.80;;;18.60;90.80;;;;;;5059740;28;20711;-11
2023/09/25 03:31:52;;;;;;;1.10;0.90;;;18.50;90.70;;;;;;5059549;28;20152;-11
2023/09/25 03:34:25;;;;;;;1.10;1.00;;;18.50;90.90;;;;;;5059354;28;20168;-11
2023/09/25 03:36:51;;;;;;;1.60;0.80;;;18.50;90.80;;;;;;5059830;28;20172;-12
2023/09/25 03:39:17;;;;;;;1.10;0.83;;;18.50;90.90;;;;;;5058583;28;20164;-11
2023/09/25 03:41:43;;;;;;;1.20;1.00;;;18.50;91.00;;;;;;5058623;28;20164;-12
2023/09/25 03:44:10;;;;;;;1.10;0.90;;;18.50;91.00;;;;;;5058976;28;20183;-10
2023/09/25 03:46:36;;;;;;;1.30;1.00;;;18.50;91.00;;;;;;5059144;28;20196;-11
2023/09/25 03:49:05;;;;;;;1.73;1.10;;;18.50;91.00;;;;;;5045681;28;20185;-13
2023/09/25 03:51:34;;;;;;;1.20;0.83;;;18.50;91.00;;;;;;5054919;28;20180;-11
2023/09/25 03:54:02;;;;;;;0.93;0.93;;;18.50;91.10;;;;;;5058429;28;20186;-11
2023/09/25 03:56:29;;;;;;;0.80;0.80;;;18.50;91.00;;;;;;5057813;28;20498;-11
2023/09/25 03:58:55;;;;;;;2.33;1.10;;;18.50;91.10;;;;;;5059110;28;20177;-12
2023/09/25 04:01:28;;;;;;;0.90;0.80;;;18.50;90.70;;;;;;5058753;28;20192;-10
2023/09/25 04:03:54;;;;;;;1.30;1.00;;;18.50;91.10;;;;;;5056019;28;20180;-11
2023/09/25 04:06:19;;;;;;;0.90;0.90;;;18.50;91.10;;;;;;5038552;28;20262;-12
2023/09/25 04:08:45;;;;;;;1.27;1.00;;;18.40;91.00;;;;;;5038099;28;20548;-11
2023/09/25 04:11:12;;;;;;;1.47;1.00;;;18.40;91.00;;;;;;5038198;28;20234;-12
2023/09/25 04:13:40;;;;;;;1.40;1.00;;;18.40;91.10;;;;;;5052468;28;20183;-13
2023/09/25 04:16:06;;;;;;;1.60;1.10;;;18.40;91.00;;;;;;5039029;28;20169;-12
2023/09/25 04:18:32;;;;;;;0.90;0.90;;;18.40;91.00;;;;;;5038134;28;20581;-12
2023/09/25 04:21:11;;;;;;;0.80;0.80;;;18.40;91.10;;;;;;5038127;28;20180;-11
2023/09/25 04:23:37;;;;;;;1.87;1.00;;;18.40;91.00;;;;;;5054038;28;20278;-12
2023/09/25 04:26:03;;;;;;;0.90;0.90;;;18.40;91.00;;;;;;5057826;28;20295;-11
2023/09/25 04:28:30;;;;;;;1.07;0.90;;;18.40;90.90;;;;;;5051575;28;20216;-12
2023/09/25 04:30:59;;;;;;;1.20;0.90;;;18.30;91.20;;;;;;5037287;28;20173;-13
2023/09/25 04:33:26;;;;;;;1.47;1.10;;;18.30;91.20;;;;;;5038127;28;20196;-12
2023/09/25 04:35:58;;;;;;;1.87;1.20;;;18.30;91.00;;;;;;5037875;28;20165;-12
2023/09/25 04:38:25;;;;;;;1.07;0.97;;;18.30;91.20;;;;;;5038028;28;20243;-12
2023/09/25 04:40:51;;;;;;;1.23;0.90;;;18.30;91.10;;;;;;5036721;28;20181;-11
2023/09/25 04:43:18;;;;;;;2.03;1.00;;;18.30;91.10;;;;;;5037070;28;20195;-12
2023/09/25 04:45:45;;;;;;;1.20;0.83;;;18.30;91.20;;;;;;5037842;28;20687;-12
2023/09/25 04:48:10;;;;;;;2.13;1.10;;;18.30;91.30;;;;;;5036933;28;20173;-11
2023/09/25 04:50:44;;;;;;;1.20;1.10;;;18.30;91.20;;;;;;5036985;28;20242;-12
2023/09/25 04:53:10;;;;;;;2.33;0.90;;;18.30;91.40;;;;;;5037203;28;20684;-14
2023/09/25 04:55:38;;;;;;;1.77;0.90;;;18.30;91.50;;;;;;5037111;28;20185;-13
2023/09/25 04:58:04;;;;;;;1.10;1.00;;;18.30;91.50;;;;;;5037724;28;20238;-12
2023/09/25 05:00:41;;;;;;;1.50;1.40;;;18.30;91.60;;;;;;5037208;28;20173;-12
2023/09/25 05:03:07;;;;;;;1.77;1.40;;;18.30;91.50;;;;;;5035937;28;20265;-11
2023/09/25 05:05:33;;;;;;;1.50;1.40;;;18.30;91.70;;;;;;5035933;28;20303;-12
2023/09/25 05:07:59;;;;;;;1.53;1.30;;;18.30;91.50;;;;;;5036280;28;20714;-14
2023/09/25 05:10:30;;;;;;;1.93;1.30;;;18.30;91.80;;;;;;5069751;28;20187;-11
2023/09/25 05:12:57;;;;;;;2.30;1.40;;;18.30;92.00;;;;;;5076247;28;20274;-12
2023/09/25 05:15:24;;;;;;;1.30;1.20;;;18.30;92.30;;;;;;5075141;28;20219;-14
2023/09/25 05:17:50;;;;;;;2.00;1.27;;;18.30;92.50;;;;;;5075938;28;20167;-13
2023/09/25 05:20:28;;;;;;;4.47;1.20;;;18.30;92.70;;;;;;5075933;28;20175;-12
2023/09/25 05:22:55;;;;;;;2.27;1.10;;;18.40;93.00;;;;;;5075234;28;20240;-12
2023/09/25 05:25:22;;;;;;;3.20;1.40;;;18.30;93.10;;;;;;5076680;28;20545;-13
2023/09/25 05:27:50;;;;;;;3.33;1.47;;;18.30;93.30;;;;;;5076027;28;20229;-11
2023/09/25 05:30:20;;;;;;;7.13;1.40;;;18.40;93.50;;;;;;5075762;28;20175;-14
2023/09/25 05:32:48;;;;;;;3.40;1.30;;;18.30;93.60;;;;;;5074130;28;20459;-12
2023/09/25 05:35:14;;;;;;;3.93;1.30;;;18.40;93.80;;;;;;5075443;28;20171;-11
2023/09/25 05:37:42;;;;;;;2.23;1.40;;;18.40;93.80;;;;;;5074789;28;20245;-12
2023/09/25 05:40:18;;;;;;;2.33;1.40;;;18.40;93.90;;;;;;5068897;28;20216;-13
2023/09/25 05:42:46;;;;;;;2.13;1.40;;;18.40;93.90;;;;;;5036636;28;20234;-11
2023/09/25 05:45:13;;;;;;;2.80;1.40;;;18.40;94.10;;;;;;5035561;28;20267;-12
2023/09/25 05:47:48;;;;;;;3.03;1.30;;;18.40;94.10;;;;;;5034098;28;20177;-13
2023/09/25 05:50:34;;;;;;;3.10;1.50;;;18.40;94.20;;;;;;5033492;28;20252;-12
2023/09/25 05:52:59;;;;;;;3.40;1.47;;;18.30;93.10;;;;;;5034473;28;20198;-10
2023/09/25 05:55:25;;;;;;;2.50;1.50;;;18.20;93.10;;;;;;5034447;28;20550;-13
2023/09/25 05:57:51;;;;;;;2.27;1.57;;;17.90;92.80;;;;;;5032968;28;20172;-12
2023/09/25 06:00:18;;;;;;;2.50;1.53;;;17.70;93.30;;;;;;5032738;28;20187;-13
2023/09/25 06:02:44;;;;;;;2.17;1.33;;;17.50;93.60;;;;;;5050164;28;20203;-13
2023/09/25 06:05:14;;;;;;;2.07;1.40;;;17.40;94.00;;;;;;5034625;28;20185;-11
2023/09/25 06:07:40;;;;;;;2.67;1.47;;;17.40;94.30;;;;;;5035630;28;20177;-12
2023/09/25 06:10:08;;;;;;;1.40;1.20;;;17.50;93.60;;;;;;5034306;28;20505;-11
2023/09/25 06:12:33;;;;;;;2.70;1.70;;;17.40;93.80;;;;;;5034429;28;20178;-13
2023/09/25 06:14:59;;;;;;;2.30;1.40;;;17.50;93.60;;;;;;5033478;28;20219;-10
2023/09/25 06:17:27;;;;;;;1.73;1.60;;;17.60;93.60;;;;;;5032656;28;20177;-11
2023/09/25 06:19:56;;;;;;;2.87;1.67;;;17.80;93.40;;;;;;5034200;28;20728;-12
2023/09/25 06:22:21;;;;;;;3.20;1.60;;;17.80;92.90;;;;;;5034263;28;20201;-11
2023/09/25 06:24:48;;;;;;;4.20;1.80;;;17.80;92.80;;;;;;5035192;28;20185;-11
2023/09/25 06:27:14;;;;;;;2.37;1.50;;;17.80;92.00;;;;;;5034511;28;20631;-11
2023/09/25 06:29:43;;;;;;;5.30;1.70;;;17.50;92.90;;;;;;5034095;28;20808;-12
2023/09/25 06:32:12;;;;;;;3.40;1.30;;;17.30;92.90;;;;;;5034701;28;20145;-11
2023/09/25 06:34:39;;;;;;;1.53;1.30;;;16.80;94.20;;;;;;5051011;28;20205;-11
2023/09/25 06:37:05;;;;;;;1.67;1.50;;;16.70;94.30;;;;;;5038620;28;20207;-11
2023/09/25 06:39:40;;;;;;;2.53;1.60;;;16.80;94.40;;;;;;5038954;28;20182;-11
2023/09/25 06:42:06;;;;;;;3.13;1.80;;;16.60;94.90;;;;;;5055064;28;20279;-12
2023/09/25 06:44:31;;;;;;;3.43;2.13;;;16.90;94.60;;;;;;5038637;28;20268;-13
2023/09/25 06:46:57;;;;;;;4.03;1.77;;;17.10;94.20;;;;;;5038737;28;20627;-11
2023/09/25 06:49:23;;;;;;;3.07;2.00;;;17.00;93.80;;;;;;5037448;28;20173;-11
2023/09/25 06:51:49;;;;;;;2.20;1.40;;;17.00;93.90;;;;;;5027928;28;20187;-12
2023/09/25 06:54:14;;;;;;;2.20;1.73;;;17.10;93.90;;;;;;5044348;28;20167;-11
2023/09/25 06:56:40;;;;;;;1.83;1.50;;;17.20;93.80;;;;;;5043501;28;20506;-11
2023/09/25 06:59:06;;;;;;;2.63;1.40;;;17.20;93.90;;;;;;5026793;28;20550;-11
2023/09/25 07:01:32;;;;;;;2.50;1.70;;;17.00;93.50;;;;;;5027168;28;20201;-12
2023/09/25 07:03:58;;;;;;;2.63;1.50;;;17.20;93.80;;;;;;5025821;28;20169;-10
2023/09/25 07:06:24;;;;;;;2.13;1.40;;;17.30;93.50;;;;;;5026498;28;20487;-11
2023/09/25 07:08:49;;;;;;;1.87;1.33;;;17.10;93.10;;;;;;5026845;28;20333;-12
2023/09/25 07:11:19;;;;;;;3.30;1.43;;;17.30;92.90;;;;;;5043076;28;20286;-11
2023/09/25 07:13:44;;;;;;;2.23;1.30;;;17.30;93.10;;;;;;5026759;28;20174;-11
2023/09/25 07:16:10;;;;;;;2.10;1.40;;;17.40;92.40;;;;;;5042250;28;20242;-11
2023/09/25 07:18:37;;;;;;;2.43;1.60;;;17.40;92.60;;;;;;5027474;28;20477;-11
2023/09/25 07:21:05;;;;;;;2.40;1.43;;;17.50;92.80;;;;;;5024368;28;20174;-12
2023/09/25 07:23:31;;;;;;;2.17;1.50;;;17.40;91.70;;;;;;5026850;28;20260;-12
2023/09/25 07:26:05;;;;;;;2.40;1.47;;;17.30;91.80;;;;;;5028228;28;20197;-11
2023/09/25 07:28:31;;;;;;;2.53;1.63;;;17.30;92.20;;;;;;5028508;28;20234;-10
2023/09/25 07:31:00;;;;;;;3.07;1.43;;;17.30;92.20;;;;;;5025372;28;20565;-11
2023/09/25 07:33:27;;;;;;;3.17;1.40;;;17.50;91.70;;;;;;5027531;28;20193;-11
2023/09/25 07:35:53;;;;;;;2.03;1.50;;;17.70;91.60;;;;;;5028249;28;20186;-12
2023/09/25 07:38:19;;;;;;;2.30;1.50;;;17.80;90.40;;;;;;5026724;28;20181;-11
2023/09/25 07:40:46;;;;;;;2.27;1.50;;;17.70;90.70;;;;;;5043764;28;20255;-16
2023/09/25 07:43:12;;;;;;;2.70;1.67;;;17.80;90.80;;;;;;5040963;28;20256;-11
2023/09/25 07:45:38;;;;;;;1.97;1.50;;;17.70;90.70;;;;;;5026974;28;20235;-12
2023/09/25 07:48:06;;;;;;;3.67;1.63;;;17.70;90.60;;;;;;5024532;28;20200;-12
2023/09/25 07:50:34;;;;;;;1.60;1.40;;;17.90;90.10;;;;;;5044056;28;20618;-12
2023/09/25 07:52:59;;;;;;;3.67;1.50;;;18.00;88.70;;;;;;5028012;28;20197;-10
2023/09/25 07:55:26;;;;;;;1.87;1.47;;;18.00;88.50;;;;;;5026716;28;20180;-13
2023/09/25 07:57:51;;;;;;;3.33;1.60;;;18.10;88.20;;;;;;5024624;28;20439;-12
2023/09/25 08:02:47;;;;;;;2.00;1.40;;;18.40;85.70;;;;;;5024430;28;20566;-12
2023/09/25 08:05:14;;;;;;;2.17;1.47;;;18.40;85.90;;;;;;5024873;28;20164;-11
2023/09/25 08:07:39;;;;;;;2.17;1.53;;;18.50;84.50;;;;;;5040950;28;20295;-12
2023/09/25 08:10:06;;;;;;;2.13;1.60;;;18.70;85.50;;;;;;5025947;28;20321;-12
2023/09/25 08:12:32;;;;;;;2.23;1.40;;;19.00;83.50;;;;;;5039723;28;20447;-12
2023/09/25 08:14:58;;;;;;;3.07;1.73;;;19.00;83.50;;;;;;5024605;28;20547;-12
2023/09/25 08:17:24;;;;;;;2.73;1.47;;;18.80;80.70;;;;;;5042221;28;20172;-12
2023/09/25 08:19:55;;;;;;;2.23;1.43;;;18.60;83.00;;;;;;5025766;28;20177;-12
2023/09/25 08:22:20;;;;;;;3.00;1.57;;;18.90;83.10;;;;;;5024121;28;20180;-12
2023/09/25 08:24:47;;;;;;;1.73;1.50;;;19.00;82.30;;;;;;5024016;28;20718;-12
2023/09/25 08:27:14;;;;;;;1.93;1.63;;;19.10;81.70;;;;;;5024355;28;20566;-12
2023/09/25 08:29:39;;;;;;;2.70;1.80;;;19.20;80.40;;;;;;5024311;28;20596;-12
2023/09/25 08:32:07;;;;;;;2.87;1.93;;;19.40;81.20;;;;;;5027463;28;20165;-13
2023/09/25 08:34:33;;;;;;;3.60;1.70;;;19.70;79.90;;;;;;5026919;28;20177;-12
2023/09/25 08:36:59;;;;;;;2.90;2.33;;;19.80;77.10;;;;;;5028504;28;20236;-11
2023/09/25 08:39:25;;;;;;;2.00;1.77;;;19.80;76.70;;;;;;5027872;28;20390;-12
2023/09/25 08:41:51;;;;;;;2.67;1.60;;;19.90;78.00;;;;;;5043688;28;20292;-12
2023/09/25 08:44:17;;;;;;;2.77;1.80;;;20.00;76.40;;;;;;5026680;28;20211;-12
2023/09/25 08:46:44;;;;;;;2.87;1.90;;;20.10;77.10;;;;;;5050378;28;20279;-13
2023/09/25 08:49:12;;;;;;;1.90;1.60;;;20.10;74.80;;;;;;5056204;28;20176;-12
2023/09/25 08:51:39;;;;;;;1.73;1.53;;;20.00;75.10;;;;;;5056483;28;20236;-16
2023/09/25 08:54:06;;;;;;;1.63;1.30;;;19.90;74.30;;;;;;5049464;28;20168;-12
2023/09/25 08:56:32;;;;;;;2.20;1.70;;;20.00;73.70;;;;;;5046265;28;20180;-12
2023/09/25 08:59:04;;;;;;;3.57;1.80;;;19.80;72.90;;;;;;5047321;28;20692;-11
2023/09/25 09:01:30;;;;;;;3.07;1.60;;;19.70;73.20;;;;;;5045514;28;20192;-10
2023/09/25 09:03:56;;;;;;;2.30;1.57;;;19.90;72.40;;;;;;5045048;28;20190;-12
2023/09/25 09:06:21;;;;;;;1.70;1.50;;;20.00;70.30;;;;;;5045944;28;20223;-12
2023/09/25 09:08:49;;;;;;;2.10;1.60;;;20.00;70.70;;;;;;5047798;28;20173;-11
2023/09/25 09:11:15;;;;;;;3.17;1.50;;;19.90;72.20;;;;;;5045279;28;20211;-13
2023/09/25 09:13:48;;;;;;;3.60;1.70;;;20.10;70.80;;;;;;5046254;28;20176;-12
2023/09/25 09:16:16;;;;;;;2.50;1.70;;;20.00;71.90;;;;;;5046098;28;20183;-13
2023/09/25 09:18:42;;;;;;;2.47;1.63;;;20.10;72.40;;;;;;5047131;28;20187;-13
2023/09/25 09:21:23;;;;;;;3.87;1.60;;;20.10;71.30;;;;;;5045898;28;20172;-11
2023/09/25 09:23:49;;;;;;;1.80;1.50;;;20.10;72.70;;;;;;5046622;28;20329;-12
2023/09/25 09:26:14;;;;;;;2.13;1.60;;;20.20;72.70;;;;;;5047963;28;20219;-12
2023/09/25 09:28:45;;;;;;;1.73;1.40;;;20.30;72.10;;;;;;5046879;28;20295;-12
2023/09/25 09:31:11;;;;;;;3.23;1.73;;;20.40;70.70;;;;;;5046117;28;20258;-12
2023/09/25 09:33:43;;;;;;;2.43;1.50;;;20.50;70.00;;;;;;5042832;28;20176;-12
2023/09/25 09:36:13;;;;;;;2.60;1.57;;;20.60;67.90;;;;;;5044458;28;20333;-12
2023/09/25 09:38:41;;;;;;;1.97;1.63;;;20.60;68.40;;;;;;5042674;28;20172;-12
2023/09/25 09:41:07;;;;;;;3.13;1.70;;;20.60;69.30;;;;;;5039701;28;20522;-12
2023/09/25 09:43:33;;;;;;;4.67;1.53;;;20.60;69.10;;;;;;5042934;28;20325;-12
2023/09/25 09:46:02;;;;;;;1.63;1.53;;;20.50;69.20;;;;;;5042724;28;20210;-12
2023/09/25 09:48:31;;;;;;;2.20;1.40;;;20.60;70.00;;;;;;5044501;28;20203;-11
2023/09/25 09:51:02;;;;;;;3.00;1.87;;;20.70;66.90;;;;;;5043674;28;20421;-12
2023/09/25 09:53:28;;;;;;;2.63;1.50;;;20.70;64.40;;;;;;5044270;28;20173;-12
2023/09/25 09:55:56;;;;;;;1.97;1.53;;;20.70;67.50;;;;;;5044137;28;20421;-12
2023/09/25 09:58:26;;;;;;;2.80;1.50;;;20.80;66.30;;;;;;5040272;28;20168;-12
2023/09/25 10:00:54;;;;;;;3.67;1.60;;;20.90;65.70;;;;;;5039988;28;20286;-11
2023/09/25 10:03:20;;;;;;;2.63;1.77;;;20.90;63.40;;;;;;5042959;28;20234;-13
2023/09/25 10:05:48;;;;;;;2.43;1.80;;;20.80;64.00;;;;;;5041816;28;20220;-12
2023/09/25 10:08:15;;;;;;;2.87;1.57;;;20.80;65.30;;;;;;5040606;28;20180;-12
2023/09/25 10:10:43;;;;;;;2.57;1.70;;;20.80;66.60;;;;;;5041623;28;20502;-12
2023/09/25 10:13:24;;;;;;;3.23;1.53;;;20.90;65.40;;;;;;5044944;28;20181;-12
2023/09/25 10:15:53;;;;;;;3.30;1.50;;;21.00;63.00;;;;;;5044440;28;20469;-12
2023/09/25 10:18:19;;;;;;;4.83;1.70;;;21.10;63.20;;;;;;5045327;28;20179;-12
2023/09/25 10:20:46;;;;;;;2.00;1.40;;;21.10;64.60;;;;;;5046500;28;20278;-13
2023/09/25 10:23:23;;;;;;;1.67;1.47;;;21.30;63.20;;;;;;5046975;28;20168;-13
2023/09/25 10:25:52;;;;;;;1.50;1.30;;;21.40;64.50;;;;;;5045623;28;20508;-11
2023/09/25 10:28:30;;;;;;;2.33;1.70;;;21.50;63.70;;;;;;5046686;28;20490;-12
2023/09/25 10:30:58;;;;;;;3.00;1.57;;;21.60;63.90;;;;;;5044812;28;20446;-12
2023/09/25 10:33:27;;;;;;;3.17;1.37;;;21.60;63.90;;;;;;5047531;28;20160;-12
2023/09/25 10:36:01;;;;;;;2.00;1.70;;;21.50;64.90;;;;;;5048840;28;20266;-12
2023/09/25 10:38:28;;;;;;;4.77;1.50;;;21.50;65.70;;;;;;5065619;28;20179;-12
2023/09/25 10:40:58;;;;;;;3.03;1.57;;;21.70;64.20;;;;;;5065343;28;20270;-14
2023/09/25 10:43:25;;;;;;;2.87;1.60;;;21.70;63.40;;;;;;5068978;28;20190;-13
2023/09/25 10:45:54;;;;;;;3.07;1.40;;;21.60;63.10;;;;;;5071313;28;20199;-12
2023/09/25 10:48:22;;;;;;;4.10;1.50;;;21.50;65.30;;;;;;5044746;28;20382;-12
2023/09/25 10:50:49;;;;;;;1.97;1.50;;;21.50;65.00;;;;;;5033855;28;20176;-12
2023/09/25 10:53:15;;;;;;;2.13;1.60;;;21.40;65.30;;;;;;5045463;28;20185;-13
2023/09/25 10:55:41;;;;;;;2.67;1.57;;;21.50;60.00;;;;;;5043438;28;20222;-13
2023/09/25 10:58:13;;;;;;;1.40;1.30;;;21.50;59.70;;;;;;5047577;28;20230;-14
2023/09/25 11:00:43;;;;;;;1.83;1.30;;;21.50;59.70;;;;;;5042504;28;20177;-13
2023/09/25 11:03:09;;;;;;;2.47;1.30;;;21.40;59.40;;;;;;5050362;28;20234;-11
2023/09/25 11:05:37;;;;;;;2.13;1.30;;;21.40;59.40;;;;;;5044233;28;20184;-11
2023/09/25 11:08:05;;;;;;;3.50;1.50;;;21.50;59.40;;;;;;5045138;28;20196;-11
2023/09/25 11:10:33;;;;;;;1.67;1.40;;;21.40;59.10;;;;;;5045925;28;20188;-13
2023/09/25 11:13:00;;;;;;;2.67;1.50;;;21.30;57.80;;;;;;5041310;28;20346;-12
2023/09/25 11:15:27;;;;;;;1.43;1.20;;;21.20;59.50;;;;;;5034766;28;20361;-12
2023/09/25 11:17:54;;;;;;;1.73;1.20;;;21.30;60.00;;;;;;5022596;28;20184;-11
2023/09/25 11:20:33;;;;;;;2.07;1.43;;;21.30;60.10;;;;;;5044869;28;20208;-13
2023/09/25 11:23:08;;;;;;;3.17;1.43;;;21.30;61.60;;;;;;5027115;28;20425;-12
2023/09/25 11:25:43;;;;;;;2.27;1.40;;;21.40;61.20;;;;;;5026633;28;20373;-12
2023/09/25 11:28:14;;;;;;;1.50;1.40;;;21.30;61.40;;;;;;5026489;28;20243;-12
2023/09/25 11:30:47;;;;;;;2.53;1.90;;;21.20;62.10;;;;;;5033810;28;20208;-11
2023/09/25 11:33:17;;;;;;;1.50;1.30;;;21.30;61.50;;;;;;5036244;28;20545;-10
2023/09/25 11:35:43;;;;;;;3.40;1.50;;;21.30;63.30;;;;;;5034691;28;20169;-13
2023/09/25 11:38:08;;;;;;;2.47;1.40;;;21.50;59.30;;;;;;5026310;28;20432;-12
2023/09/25 11:40:34;;;;;;;2.50;1.50;;;21.50;58.60;;;;;;5026492;28;20165;-12
2023/09/25 11:43:00;;;;;;;2.13;1.50;;;21.50;59.10;;;;;;5026920;28;20563;-12
2023/09/25 11:45:26;;;;;;;1.90;1.60;;;21.50;59.60;;;;;;5025979;28;20169;-12
2023/09/25 11:47:52;;;;;;;2.00;1.63;;;21.50;60.50;;;;;;5023159;28;20208;-12
2023/09/25 11:50:18;;;;;;;2.73;1.60;;;21.40;60.10;;;;;;5025849;28;20191;-12
2023/09/25 11:52:46;;;;;;;2.20;1.40;;;21.40;61.40;;;;;;5024476;28;20432;-12
2023/09/25 11:55:14;;;;;;;2.70;1.50;;;21.30;62.60;;;;;;5024992;28;20169;-11
2023/09/25 11:57:44;;;;;;;3.60;1.90;;;21.30;64.00;;;;;;5024813;28;20200;-12
2023/09/25 12:00:18;;;;;;;3.27;1.60;;;21.20;64.40;;;;;;5026976;28;20578;-12
2023/09/25 12:02:47;;;;;;;2.00;1.50;;;21.20;64.60;;;;;;5025830;28;20189;-12
2023/09/25 12:05:18;;;;;;;1.90;1.40;;;21.30;64.40;;;;;;5024783;28;20208;-11
2023/09/25 12:07:44;;;;;;;2.03;1.20;;;21.30;64.20;;;;;;5023701;28;20382;-11
2023/09/25 12:10:16;;;;;;;1.67;1.40;;;21.40;63.90;;;;;;5023633;28;20188;-12
2023/09/25 12:12:44;;;;;;;1.83;1.40;;;21.50;59.20;;;;;;5022582;28;20175;-12
2023/09/25 12:15:12;;;;;;;2.33;1.27;;;21.60;59.00;;;;;;5021655;28;20174;-14
2023/09/25 12:17:39;;;;;;;2.60;1.43;;;21.60;59.30;;;;;;5023847;28;20566;-13
2023/09/25 12:20:11;;;;;;;2.23;1.50;;;21.60;59.90;;;;;;5024779;28;20181;-12
2023/09/25 12:22:39;;;;;;;2.87;1.40;;;21.70;59.00;;;;;;5026122;28;20235;-12
2023/09/25 12:25:11;;;;;;;1.50;1.10;;;21.70;58.50;;;;;;5022983;28;20192;-13
2023/09/25 12:27:41;;;;;;;2.30;1.33;;;21.60;57.90;;;;;;5023031;28;20249;-12
2023/09/25 12:30:10;;;;;;;1.60;1.20;;;21.60;57.70;;;;;;5024804;28;20196;-12
2023/09/25 12:32:37;;;;;;;2.57;1.57;;;21.60;58.60;;;;;;5023640;28;20325;-12
2023/09/25 12:35:04;;;;;;;2.07;1.50;;;21.60;58.00;;;;;;5046674;28;20168;-13
2023/09/25 12:37:30;;;;;;;2.10;1.50;;;21.60;59.30;;;;;;5029479;28;20216;-11
2023/09/25 12:39:55;;;;;;;3.47;1.63;;;21.60;58.60;;;;;;5025071;28;20740;-11
2023/09/25 12:42:22;;;;;;;2.03;1.50;;;21.60;58.20;;;;;;5043710;28;20741;-13
2023/09/25 12:44:47;;;;;;;3.07;1.40;;;21.50;57.90;;;;;;5044402;28;20204;-13
2023/09/25 12:47:14;;;;;;;2.00;1.43;;;21.50;58.90;;;;;;5044845;28;20200;-13
2023/09/25 12:49:40;;;;;;;1.87;1.53;;;21.50;58.40;;;;;;5042665;28;20276;-13
2023/09/25 12:52:06;;;;;;;2.57;1.27;;;21.50;58.50;;;;;;5043146;28;20206;-12
2023/09/25 12:54:31;;;;;;;2.27;1.60;;;21.50;59.10;;;;;;5043070;28;20184;-13